Aérodrome :
LOGIN :

S'inscrire | Disclaimer

   EN    FR    IT 

 










Légende :    VFR   VFR Marginal   IFR   IFR Intensif   IFR Très Intensif
Visi : 
Plafond : 
>= 8 km
>= 3000ft
5 à 8 km
1000 à 3000 ft
1500m à 5 km
500 à 1000 ft
800 à 1500m
200 à 500 ft
< 800m
< 200 ft
Symboles :   Orages  Brouillard  Fortes neiges  Fortes précipitations  Vent > 20 kt
SIGMETs :   Divers  Orages  Givrage  Turbulence  Onde Orograph.  Cendres Volcan.






- Altitude de l'aérodrome : 290 ft
- Code IATA : LAI


LFRO - Lannion

DERNIER METAR :
  • 241200Z AUTO 29013KT 9999 -RA BKN018/// BKN023/// BKN029/// //////CB 08/05 Q0997

METARs EXPIRÉS :
  • 241130Z AUTO 25013KT 9999 FEW028/// SCT038/// BKN050/// //////CB 10/06 Q0997
  • 241100Z AUTO 26013KT 9999 FEW015/// BKN028/// BKN036/// //////CB 08/06 Q0997
  • 241030Z AUTO 24010KT 9999 FEW011/// SCT033/// BKN040/// //////CB 08/06 Q0997
  • 241000Z AUTO 24010KT 8000 1500 +RA SCT013/// BKN019/// BKN026/// //////CB 06/05 Q0997
  • 240930Z AUTO 23010KT 9999 FEW025/// BKN032/// BKN042/// ///CB 07/06 Q0996
  • 240900Z AUTO 22010KT 9999 FEW013/// SCT021/// BKN027/// //////TCU 06/04 Q0996
  • 240830Z AUTO 23010KT 8000 3700 RA FEW015/// BKN023/// BKN031/// //////TCU 05/04 Q0996
  • 240800Z AUTO 21009KT 9999 SCT020/// BKN032/// BKN074/// //////TCU 05/03 Q0996
  • 240730Z AUTO 25010KT 200V280 5000 RA BR BKN023/// BKN034/// BKN043/// //////TCU 05/04 Q0996

Prévision TAF périmée.



MET'MAP, la Météo Aéronautique d'un coup d'oeil ! - Copyright ORBIFLY Décembre 2007 - Disclaimer

ORBIFLY MET'MAP TEAM :

Programmation & Développement : Alexandra Zaïnal
Sur une idée originale de : Baudouin d'Aumeries
Soutien technique & logistique : Manuel Goepfert
Assistance : Marc-Olivier Méhu




SOURCES & CREDITS :

   NOAA